Portada
METAR-TAF:

METAR-TAF

Aeroports :

Edmonton, Alberta, Canadà

latitud: 53-18N, longitud: 113-35W, altitud: 715 m

Observació

L'informe es va fer fa 25 minuts, a les 16:00 UTC
Vent 8 kt del Sud/Sud-Est
Temperatura 1°C
Humitat 69%
Pressió 1014 hPa
Visibilitat: 32.2 km
Cel clar

METAR: CYEG 231600Z 15008KT 20SM SKC 01/M04 A2993 RMK SLP161

Hora: 10:25 (16:25 UTC)

Pronòstic

L'informe es va fer fa 1 hora i 47 minuts, a les 14:38 UTC
Pronòstic vàlid del 23 a les 15 UTC al 24 a les 12 UTC
Vent 10 kt del Sud/Sud-Est
Visibilitat: 10 km
Cel clar
A partir de les 24 a les 0300 UTC
Vent 5 kt del Sud-Est
Visibilitat: 10 km
Cel clar

TAF: CYEG 231438Z 2315/2412 15010KT P6SM SKC FM240300 13005KT P6SM SKC RMK NXT FCST BY 231800Z

Observacions i pronòstics meteorològics de més de 4000 aeroports (METAR i TAF).

Les estacions disponibles són els punts grocs i vermells al mapa.

Posi el ratolí al punt desitjat per veure el nom de l'estació.

Feu clic per veure les observacions i els pronòstics meteorològics.

Per canviar el mapa: feu clic els botons verds amb una creu de color negre per apropar; al botó verd amb un guió per allunyar la imatge; o en les fletxes verdes per a mapes adjacents.


METAR-TAF: